Vliegveldwaarnemingen Nederland - (AUTO) METAR

Luchtvaartmeteorologische informatie voor operationeel gebruik en vluchtvoorbereiding is beschikbaar op www.luchtvaartmeteo.nl.

ZCZC
SA201825 EHKD     DE KOOY/DE KOOY   NLD   1 m.
METAR EHKD 201825Z AUTO 02004KT 9999 SCT140 OVC260 11/10 Q1011 BLU=

ZCZC
SA201825 EHFD     F3-FB-1   NLD   50 m.
METAR EHFD 201825Z AUTO VRB09KT 9999 SCT018/// ///// Q1012 W///H///=

ZCZC
SA201825 EHAM     AMSTERDAM/SCHIPHOL   NLD   -3 m.
METAR EHAM 201825Z 04005KT CAVOK 12/10 Q1011 NOSIG=

ZCZC
SA201825 EHVL     VLIELAND   NLD   10 m.
METAR EHVL 201825Z AUTO 04006KT 5000 BR OVC270 09/08 Q1011 WHT=

ZCZC
SA201825 EHJR     K13-A   NLD   37 m.
METAR EHJR 201825Z AUTO 04013KT //// // ///////// 13/10 Q//// RE//
W16/H15=

ZCZC
SA201825 EHLW     LEEUWARDEN/LEEUWARDEN   NLD   1 m.
METAR EHLW 201825Z AUTO 07003KT 020V090 6000 BR FEW120 OVC220 10/10
Q1011 WHT=

ZCZC
SA201825 EHDL     ARNHEM/DEELEN   NLD   48 m.
METAR EHDL 201825Z AUTO 01006KT 320V030 4300 BR OVC051 11/11 Q1010 GRN=

ZCZC
SA201825 EHGG     GRONINGEN/EELDE   NLD   5 m.
METAR EHGG 201825Z AUTO 04003KT 3200 BR NSC 10/10 Q1011 NOSIG=

ZCZC
SA201825 EHSC     LICHTEILAND GOEREE   NLD   22 m.
METAR EHSC 201825Z AUTO 03014KT 9999 ///////// 14/09 Q1010 W15/H9=

ZCZC
SA201825 EHSA     EURO PLATFORM   NLD   19 m.
METAR EHSA 201825Z AUTO 01013KT 9999 ///////// 14/09 Q1010 W13/H9=

ZCZC
SA201825 EHWO     WOENSDRECHT/WOENSDRECHT   NLD   19 m.
METAR EHWO 201825Z AUTO 05004KT 020V080 9999 OVC068 11/10 Q1010 BLU=

ZCZC
SA201825 EHRD     ROTTERDAM/THE HAGUE AIRPORT   NLD   -5 m.
METAR EHRD 201825Z AUTO 04007KT 010V070 9999 NSC 12/10 Q1010 NOSIG=

ZCZC
SA201825 EHGR     GILZE-RIJEN/GILZE-RIJEN   NLD   14 m.
METAR EHGR 201825Z NIL=

ZCZC
SA201825 EHEH     EINDHOVEN/EINDHOVEN   NLD   22 m.
METAR EHEH 201825Z AUTO 02008KT 9999 BKN038 OVC042 12/10 Q1009
BLU 03007KT 9999 FEW008 BKN040 OVC045=

ZCZC
SA201825 EHVK     VOLKEL/VOLKEL   NLD   21 m.
METAR EHVK 201825Z AUTO 01004KT 340V070 9999 OVC042 11/10 Q1010 BLU=

ZCZC
SA201825 EHBK     MAASTRICHT/MAASTRICHT-AACHEN   NLD   114 m.
METAR EHBK 201825Z AUTO 03010KT 3100 -DZ FEW004 SCT005 OVC006 11/10
Q1009 BECMG BKN004=

ZCZC
SA201825 EHFZ     F16-A   NLD   43 m.
METAR EHFZ 201825Z AUTO 04010KT 9999 FEW017 OVC044 13/09 Q1012
W///H///=

ZCZC
SA201825 EHKV     K14-FA-1C   NLD   41 m.
METAR EHKV 201825Z AUTO 04007KT 9999 FEW017 14/09 Q1012 W///H///=

ZCZC
SA201825 EHMG     L9-FF-1   NLD   44 m.
METAR EHMG 201825Z AUTO 04006KT 9999 NSC 13/09 Q1013 W///H///=

ZCZC
SA201825 EHMA     AWG-1   NLD   40 m.
METAR EHMA 201825Z AUTO 03006KT 9999 NSC 13/10 Q1012 W///H///=

ZCZC
SA201825 EHDV     D15-FA-1   NLD   42 m.
METAR EHDV 201825Z AUTO 03016KT 350V060 9999 FEW018/// 13/09 Q1013
W///H///=

ZCZC
SA201825 EHAK     A12-CPP   NLD   48 m.
METAR EHAK 201825Z AUTO 05012KT 9999 FEW014/// 12/09 Q1013 W///H///=

ZCZC
SA201825 EHQE     HOORN-A   NLD   50 m.
METAR EHQE 201825Z AUTO 01007KT 9999 ////// 13/08 Q1011 W///H///=

ZCZC
SA201825 EHJA     J6-A   NLD   45 m.
METAR EHJA 201825Z AUTO 03014KT 9999 FEW018/// SCT027/// BKN035///
13/09 Q1012 REDZ W///H///=

ZCZC
SA201825 EHPG     P11-B   NLD   41 m.
METAR EHPG 201825Z AUTO 00000KT 9999 FEW018 14/09 Q1011 W///H///=

ZCZC
SA201825 EHHW     BUITENGAATS/BG-OHVS2      42 m.
METAR EHHW 201825Z AUTO 03005KT 9999 NSC 13/08 Q1012 W///H///=

ZCZC
SA201825 EHFS     VLISSINGEN AWS   NLD   8 m.
METAR EHFS 201825Z AUTO 07007KT 9999 DZ BKN017/// OVC021/// 13/11
Q1010 W///H///=

20/10/2019 20.45 uur LT